Time;durP1;ratioP1;P1;durP2;ratioP2;P2;SDS_P1;SDS_P2;PMS_P1;PMS_P2;Temp;Humidity;BMP_temperature;BMP_pressure;BME280_temperature;BME280_humidity;BME280_pressure;Samples;Min_cycle;Max_cycle;Signal;HPM_P1;HPM_P2
2022/03/29 17:31:06;;;;;;;29.00;11.30;;;14.70;99.90;;;;;;5324504;24;20236;-76
2022/03/29 17:33:33;;;;;;;24.50;10.27;;;14.80;99.90;;;;;;4856849;29;20212;-75
2022/03/29 17:36:00;;;;;;;27.40;11.07;;;15.00;99.90;;;;;;4857011;29;20235;-76
2022/03/29 17:38:29;;;;;;;23.90;10.00;;;14.90;99.90;;;;;;4854789;29;20223;-74
2022/03/29 17:40:57;;;;;;;23.07;9.50;;;14.90;99.90;;;;;;4864618;29;20302;-73
2022/03/29 17:43:23;;;;;;;22.13;9.93;;;14.80;99.90;;;;;;4876322;29;20211;-74
2022/03/29 17:45:51;;;;;;;24.73;10.03;;;14.60;99.90;;;;;;4841150;29;20213;-74
2022/03/29 17:48:20;;;;;;;24.43;10.00;;;14.60;99.90;;;;;;4856413;29;20242;-74
2022/03/29 17:50:47;;;;;;;24.23;9.73;;;14.60;99.90;;;;;;4854589;29;20208;-74
2022/03/29 17:53:14;;;;;;;24.00;9.57;;;14.50;99.90;;;;;;4841422;29;20564;-74
2022/03/29 17:55:42;;;;;;;22.40;8.47;;;14.50;99.90;;;;;;4853075;29;20200;-74
2022/03/29 17:58:08;;;;;;;23.23;9.60;;;14.50;99.90;;;;;;4857890;29;20227;-74
2022/03/29 18:00:36;;;;;;;22.57;10.23;;;14.20;99.90;;;;;;4856524;29;20214;-74
2022/03/29 18:03:04;;;;;;;25.70;10.27;;;14.20;99.90;;;;;;4848084;29;20219;-75
2022/03/29 18:05:32;;;;;;;26.17;10.40;;;14.20;99.90;;;;;;4841186;29;20648;-74
2022/03/29 18:07:59;;;;;;;22.17;9.37;;;14.20;99.90;;;;;;4844161;29;20225;-73
2022/03/29 18:10:26;;;;;;;18.20;8.60;;;14.20;99.90;;;;;;4856790;29;20220;-74
2022/03/29 18:12:54;;;;;;;20.90;9.33;;;14.20;99.90;;;;;;4858479;29;20246;-74
2022/03/29 18:15:21;;;;;;;22.93;9.77;;;14.20;99.90;;;;;;4859733;29;20256;-74
2022/03/29 18:17:49;;;;;;;22.80;9.43;;;14.10;99.90;;;;;;4863083;29;20247;-74
2022/03/29 18:20:17;;;;;;;20.37;9.47;;;14.10;99.90;;;;;;4863091;29;20218;-74
2022/03/29 18:22:46;;;;;;;22.07;9.30;;;14.10;99.90;;;;;;4862997;29;20558;-74
2022/03/29 18:25:13;;;;;;;19.33;9.17;;;14.00;99.90;;;;;;4854703;29;20204;-74
2022/03/29 18:27:41;;;;;;;21.40;9.00;;;13.90;99.90;;;;;;4860910;29;20981;-74
2022/03/29 18:30:10;;;;;;;21.00;8.77;;;13.90;99.90;;;;;;4862523;29;20215;-74
2022/03/29 18:32:38;;;;;;;20.47;9.30;;;13.80;99.90;;;;;;4862107;29;20240;-73
2022/03/29 18:35:06;;;;;;;25.27;10.17;;;13.80;99.90;;;;;;4862686;29;20219;-75
2022/03/29 18:37:33;;;;;;;22.07;9.50;;;13.70;99.90;;;;;;4863071;29;20215;-73
2022/03/29 18:40:01;;;;;;;20.03;9.03;;;13.70;99.90;;;;;;4862986;29;20240;-73
2022/03/29 18:42:28;;;;;;;21.70;9.23;;;13.70;99.90;;;;;;4862374;29;20211;-73
2022/03/29 18:44:55;;;;;;;23.77;8.87;;;13.70;99.90;;;;;;4862771;29;20313;-74
2022/03/29 18:47:22;;;;;;;21.83;9.30;;;13.70;99.90;;;;;;4862779;29;20664;-73
2022/03/29 18:49:49;;;;;;;17.63;8.23;;;13.70;99.90;;;;;;4857167;29;20213;-73
2022/03/29 18:52:17;;;;;;;19.40;9.27;;;13.60;99.90;;;;;;4859039;29;20271;-75
2022/03/29 18:54:46;;;;;;;19.87;8.87;;;13.60;99.90;;;;;;4860483;29;20204;-72
2022/03/29 18:57:14;;;;;;;19.10;7.73;;;13.50;99.90;;;;;;4860716;29;20212;-74
2022/03/29 18:59:40;;;;;;;17.33;7.77;;;13.50;99.90;;;;;;4846997;29;20233;-73
2022/03/29 19:02:07;;;;;;;19.20;8.93;;;13.60;99.90;;;;;;4846748;29;20761;-73
2022/03/29 19:04:35;;;;;;;17.10;7.87;;;13.70;99.90;;;;;;4855765;29;20216;-74
2022/03/29 19:07:02;;;;;;;17.53;8.23;;;13.70;99.90;;;;;;4856568;29;20303;-74
2022/03/29 19:09:28;;;;;;;16.63;7.73;;;13.80;99.90;;;;;;4863470;29;20287;-73
2022/03/29 19:11:55;;;;;;;18.50;8.67;;;13.70;99.90;;;;;;4861010;29;20588;-73
2022/03/29 19:14:23;;;;;;;17.30;8.47;;;13.70;99.90;;;;;;4860049;29;20207;-73
2022/03/29 19:16:50;;;;;;;18.73;7.63;;;13.60;99.90;;;;;;4859637;29;20204;-73
2022/03/29 19:19:17;;;;;;;16.77;8.07;;;13.70;99.90;;;;;;4860433;29;20236;-72
2022/03/29 19:21:44;;;;;;;16.20;7.93;;;13.50;99.90;;;;;;4860752;29;20211;-73
2022/03/29 19:24:11;;;;;;;19.23;8.87;;;13.60;99.90;;;;;;4858504;29;20208;-72
2022/03/29 19:26:38;;;;;;;16.60;8.47;;;13.70;99.90;;;;;;4859618;29;20208;-73
2022/03/29 19:29:05;;;;;;;18.27;7.47;;;13.60;99.90;;;;;;4860059;29;20227;-73
2022/03/29 19:31:34;;;;;;;19.73;8.70;;;13.60;99.90;;;;;;4859461;29;20322;-73
2022/03/29 19:34:01;;;;;;;18.30;8.37;;;13.50;99.90;;;;;;4860203;29;20236;-73
2022/03/29 19:36:29;;;;;;;16.30;8.00;;;13.60;99.90;;;;;;4861435;29;20572;-73
2022/03/29 19:39:33;;;;;;;16.13;7.23;;;13.50;99.90;;;;;;4861631;29;20228;-72
2022/03/29 19:42:02;;;;;;;14.67;6.63;;;13.30;99.90;;;;;;4851092;29;20219;-72
2022/03/29 19:44:29;;;;;;;19.47;8.33;;;13.30;99.90;;;;;;4842768;29;20213;-73
2022/03/29 19:46:59;;;;;;;18.57;8.10;;;13.30;99.90;;;;;;4842809;29;20677;-73
2022/03/29 19:49:26;;;;;;;17.83;8.00;;;13.20;99.90;;;;;;4842701;29;20328;-73
2022/03/29 19:51:53;;;;;;;19.40;7.63;;;13.10;99.90;;;;;;4846267;29;20245;-73
2022/03/29 19:54:20;;;;;;;17.43;8.37;;;13.10;99.90;;;;;;4850663;29;20277;-74
2022/03/29 19:56:47;;;;;;;18.80;8.27;;;13.10;99.90;;;;;;4842746;29;20303;-73
2022/03/29 19:59:14;;;;;;;17.90;8.70;;;13.00;99.90;;;;;;4859680;29;20315;-75
2022/03/29 20:01:41;;;;;;;17.43;7.93;;;13.00;99.90;;;;;;4860977;29;20216;-74
2022/03/29 20:04:09;;;;;;;18.47;7.90;;;13.00;99.90;;;;;;4860832;29;20212;-73
2022/03/29 20:06:36;;;;;;;17.93;7.50;;;12.80;99.90;;;;;;4860481;29;20219;-75
2022/03/29 20:09:03;;;;;;;20.13;8.13;;;12.70;99.90;;;;;;4860776;29;20235;-73
2022/03/29 20:11:31;;;;;;;15.00;7.00;;;12.70;99.90;;;;;;4842903;29;20215;-73
2022/03/29 20:13:58;;;;;;;13.00;6.73;;;12.60;99.90;;;;;;4842510;29;20212;-74
2022/03/29 20:16:25;;;;;;;18.13;7.90;;;12.60;99.90;;;;;;4847644;29;20208;-73
2022/03/29 20:18:55;;;;;;;16.40;6.77;;;12.50;99.90;;;;;;4860373;29;20238;-73
2022/03/29 20:21:24;;;;;;;15.43;6.70;;;12.50;99.90;;;;;;4859436;29;20208;-73
2022/03/29 20:23:51;;;;;;;17.60;7.00;;;12.50;99.90;;;;;;4842779;29;20752;-74
2022/03/29 20:26:18;;;;;;;15.57;6.63;;;12.60;99.90;;;;;;4842021;29;20217;-73
2022/03/29 20:28:45;;;;;;;13.93;6.87;;;12.60;99.90;;;;;;4841678;29;20238;-73
2022/03/29 20:31:13;;;;;;;15.37;6.73;;;12.60;99.90;;;;;;4842194;29;20220;-73
2022/03/29 20:33:41;;;;;;;14.03;6.63;;;12.60;99.90;;;;;;4844285;29;20248;-73
2022/03/29 20:36:08;;;;;;;12.63;6.17;;;12.60;99.90;;;;;;4860930;29;20208;-73
2022/03/29 20:38:37;;;;;;;13.83;6.30;;;12.60;99.90;;;;;;4860616;29;20239;-73
2022/03/29 20:41:05;;;;;;;11.93;5.40;;;12.40;99.90;;;;;;4860573;29;20208;-74
2022/03/29 20:43:33;;;;;;;13.33;5.70;;;12.50;99.90;;;;;;4860568;29;20224;-73
2022/03/29 20:46:02;;;;;;;13.70;5.67;;;12.40;99.90;;;;;;4861015;29;20215;-72
2022/03/29 20:48:29;;;;;;;12.93;6.07;;;12.50;99.90;;;;;;4860888;29;20232;-73
2022/03/29 20:50:56;;;;;;;10.70;5.30;;;12.50;99.90;;;;;;4860450;29;20222;-73
2022/03/29 20:53:23;;;;;;;14.87;5.97;;;12.60;99.90;;;;;;4860294;29;20243;-73
2022/03/29 20:55:51;;;;;;;11.70;5.83;;;12.60;99.90;;;;;;4860501;29;20212;-73
2022/03/29 20:58:18;;;;;;;11.93;5.47;;;12.60;99.90;;;;;;4860133;29;20232;-74
2022/03/29 21:00:45;;;;;;;10.93;5.67;;;12.60;99.90;;;;;;4860470;29;20215;-73
2022/03/29 21:03:12;;;;;;;12.27;5.10;;;12.70;99.90;;;;;;4860156;29;20212;-75
2022/03/29 21:05:39;;;;;;;13.47;5.93;;;12.60;99.90;;;;;;4860110;29;20212;-75
2022/03/29 21:08:09;;;;;;;10.93;5.33;;;12.60;99.90;;;;;;4859774;29;20321;-74
2022/03/29 21:10:36;;;;;;;11.43;6.33;;;12.60;99.90;;;;;;4859884;29;20736;-74
2022/03/29 21:13:05;;;;;;;11.80;5.73;;;12.70;99.90;;;;;;4859428;29;20239;-72
2022/03/29 21:15:32;;;;;;;12.57;5.70;;;12.70;99.90;;;;;;4860014;29;20310;-73
2022/03/29 21:18:00;;;;;;;12.60;6.17;;;12.60;99.90;;;;;;4859501;29;20724;-73
2022/03/29 21:20:28;;;;;;;12.93;5.93;;;12.60;99.90;;;;;;4859922;29;20215;-73
2022/03/29 21:23:00;;;;;;;10.87;5.17;;;12.60;99.90;;;;;;4859623;29;20212;-73
2022/03/29 21:25:27;;;;;;;12.73;6.37;;;12.50;99.90;;;;;;4860499;29;20694;-73
2022/03/29 21:27:54;;;;;;;10.50;5.53;;;12.50;99.90;;;;;;4859732;29;20707;-73
2022/03/29 21:30:22;;;;;;;15.90;5.90;;;12.50;99.90;;;;;;4860167;29;20224;-73
2022/03/29 21:32:49;;;;;;;20.07;6.50;;;12.60;99.90;;;;;;4860071;29;20815;-73
2022/03/29 21:35:16;;;;;;;10.80;5.83;;;12.60;99.90;;;;;;4859456;29;20214;-74
2022/03/29 21:37:43;;;;;;;17.50;6.23;;;12.50;99.90;;;;;;4859331;29;20636;-74
2022/03/29 21:40:11;;;;;;;12.63;5.90;;;12.40;99.90;;;;;;4856075;29;20207;-74
2022/03/29 21:42:38;;;;;;;12.47;6.57;;;12.30;99.90;;;;;;4855026;29;20269;-75
2022/03/29 21:45:06;;;;;;;13.60;6.27;;;12.30;99.90;;;;;;4859192;29;20613;-72
2022/03/29 21:47:34;;;;;;;14.73;6.33;;;12.30;99.90;;;;;;4858309;29;20298;-73
2022/03/29 21:50:01;;;;;;;11.67;6.10;;;12.20;99.90;;;;;;4846032;29;20231;-74
2022/03/29 21:52:28;;;;;;;16.97;6.90;;;12.20;99.90;;;;;;4845059;29;20600;-74
2022/03/29 21:54:54;;;;;;;14.80;6.53;;;12.00;99.90;;;;;;4845045;29;20687;-76
2022/03/29 21:57:21;;;;;;;12.70;6.30;;;12.00;99.90;;;;;;4862783;29;20210;-75
2022/03/29 21:59:48;;;;;;;14.73;6.57;;;12.00;99.90;;;;;;4863261;29;20210;-74
2022/03/29 22:02:15;;;;;;;13.17;6.43;;;12.10;99.90;;;;;;4846097;29;20215;-74
2022/03/29 22:04:43;;;;;;;15.80;6.40;;;12.10;99.90;;;;;;4853156;29;20215;-73
2022/03/29 22:07:10;;;;;;;16.13;6.67;;;12.00;99.90;;;;;;4863247;29;20815;-73
2022/03/29 22:09:37;;;;;;;10.90;5.77;;;11.90;99.90;;;;;;4861337;29;20232;-72
2022/03/29 22:12:04;;;;;;;17.20;6.67;;;11.90;99.90;;;;;;4862881;29;20249;-72
2022/03/29 22:14:31;;;;;;;13.23;6.30;;;11.90;99.90;;;;;;4862654;29;20208;-74
2022/03/29 22:16:57;;;;;;;16.90;6.60;;;12.00;99.90;;;;;;4862392;29;20215;-71
2022/03/29 22:19:24;;;;;;;13.67;7.07;;;12.00;99.90;;;;;;4863436;29;20232;-71
2022/03/29 22:21:52;;;;;;;11.20;6.17;;;12.10;99.90;;;;;;4863024;29;20204;-74
2022/03/29 22:24:19;;;;;;;13.30;6.40;;;12.00;99.90;;;;;;4863342;29;20549;-73
2022/03/29 22:26:46;;;;;;;14.90;6.07;;;12.10;99.90;;;;;;4863087;29;20222;-72
2022/03/29 22:29:15;;;;;;;10.17;5.83;;;12.20;99.90;;;;;;4863485;29;20228;-72
2022/03/29 22:31:42;;;;;;;12.37;6.43;;;12.20;99.90;;;;;;4862416;29;20226;-71
2022/03/29 22:34:09;;;;;;;11.50;6.20;;;12.10;99.90;;;;;;4861762;29;20247;-71
2022/03/29 22:36:36;;;;;;;11.83;5.67;;;12.20;99.90;;;;;;4862884;29;20208;-71
2022/03/29 22:39:04;;;;;;;12.93;6.73;;;12.10;99.90;;;;;;4863101;29;20228;-72
2022/03/29 22:41:31;;;;;;;14.37;6.57;;;12.10;99.90;;;;;;4862933;29;20591;-72
2022/03/29 22:43:58;;;;;;;11.10;5.50;;;12.10;99.90;;;;;;4862784;29;20226;-71
2022/03/29 22:46:24;;;;;;;14.13;7.17;;;12.00;99.90;;;;;;4862636;29;20208;-71
2022/03/29 22:48:51;;;;;;;14.83;6.77;;;11.90;99.90;;;;;;4863258;29;20230;-75
2022/03/29 22:51:18;;;;;;;12.33;6.03;;;11.80;99.90;;;;;;4863272;29;20222;-77
2022/03/29 22:53:45;;;;;;;13.03;6.40;;;11.90;99.90;;;;;;4862900;29;20244;-73
2022/03/29 22:58:57;;;;;;;11.93;6.27;;;11.90;99.90;;;;;;4862822;29;20240;-73
2022/03/29 23:01:24;;;;;;;14.97;6.37;;;11.90;99.90;;;;;;4862311;29;20644;-72
2022/03/29 23:03:51;;;;;;;14.87;6.80;;;11.80;99.90;;;;;;4861907;29;20208;-72
2022/03/29 23:06:17;;;;;;;13.23;6.03;;;11.90;99.90;;;;;;4862802;29;20404;-73
2022/03/29 23:08:44;;;;;;;14.33;6.87;;;11.90;99.90;;;;;;4862726;29;20232;-72
2022/03/29 23:11:12;;;;;;;14.00;6.47;;;11.80;99.90;;;;;;4862432;29;20204;-73
2022/03/29 23:13:39;;;;;;;16.13;6.63;;;11.80;99.90;;;;;;4862900;29;20687;-72
2022/03/29 23:16:06;;;;;;;19.30;7.37;;;11.80;99.90;;;;;;4862732;29;20204;-73
2022/03/29 23:18:33;;;;;;;16.00;7.73;;;11.90;99.90;;;;;;4862866;29;20335;-72
2022/03/29 23:20:59;;;;;;;16.43;7.40;;;11.80;99.90;;;;;;4862675;29;20219;-72
2022/03/29 23:23:26;;;;;;;14.40;7.27;;;11.80;99.90;;;;;;4862450;29;20703;-73
2022/03/29 23:25:53;;;;;;;14.23;7.07;;;11.90;99.90;;;;;;4862577;29;20222;-72
2022/03/29 23:28:21;;;;;;;15.93;7.00;;;11.90;99.90;;;;;;4862098;29;20239;-72
